Stations météo

réclame
Mon MeteoGroup
Katesbridge, Grande-Bretagne (99014): Température de l'air & dewpoint: 07.07.2020 01:00:00 - 13.07.2020 01:00:00 (BST)Katesbridge, Grande-Bretagne (99014): Vitesse du vent: 07.07.2020 01:00:00 - 13.07.2020 01:00:00 (BST)Katesbridge, Grande-Bretagne (99014): Direction du vent: 07.07.2020 01:00:00 - 13.07.2020 01:00:00 (BST)Katesbridge, Grande-Bretagne (99014): Ensoleillement: 07.07.2020 01:00:00 - 13.07.2020 01:00:00 (BST)Katesbridge, Grande-Bretagne (99014): Quantités de précipitations: 07.07.2020 01:00:00 - 13.07.2020 01:00:00 (BST)
Date & Time tt [°C] td [°C] ff [km/h] ff [knt] dd sd [min] rr [mm]
13.07.2020 01:00:00 15,7 13,9 13 7 SW - 0,0
13.07.2020 00:00:00 16,2 13,5 11 6 SW 0 0,0
12.07.2020 23:00:00 16,2 13,3 9 5 SSW 0 0,0
12.07.2020 22:00:00 16,0 13,3 5 3 S 0 0,0
12.07.2020 21:00:00 16,2 13,1 8 4 SW 0 0,0
12.07.2020 20:00:00 16,5 12,9 11 6 SW 0 0,0
12.07.2020 19:00:00 16,8 12,9 11 6 SSW 0 0,0
12.07.2020 18:00:00 16,7 12,1 15 8 SW 0 0,0
12.07.2020 17:00:00 17,5 11,5 15 8 WSW 0 0,0
12.07.2020 16:00:00 17,7 11,1 13 7 SW 0 0,0
12.07.2020 15:00:00 17,2 10,9 15 8 SW 0 0,0
12.07.2020 14:00:00 17,3 10,5 18 10 SW 6 0,0
12.07.2020 13:00:00 17,1 9,7 13 7 SSW 24 0,0
12.07.2020 12:00:00 17,0 9,3 16 9 SSW 54 0,0
12.07.2020 11:00:00 16,0 9,4 13 7 SW 60 0,0
12.07.2020 10:00:00 16,1 10,2 11 6 SW 60 0,0
12.07.2020 09:00:00 14,4 12,6 4 2 SSW 30 0,0
12.07.2020 08:00:00 11,5 11,5 2 1 SE 36 0,0
12.07.2020 07:00:00 7,3 7,3 2 1 SSE 12 0,0
12.07.2020 06:00:00 3,2 3,2 0 0 N 0 0,0
12.07.2020 05:00:00 2,1 2,0 0 0 N 0 0,0
12.07.2020 04:00:00 2,1 1,9 2 1 NNE 0 0,0
12.07.2020 03:00:00 2,6 2,2 0 0 N 0 0,0
12.07.2020 02:00:00 3,6 3,3 2 1 NE 0 0,0
12.07.2020 01:00:00 4,2 3,4 2 1 NNE - 0,0
12.07.2020 00:00:00 5,5 4,7 0 0 N 0 0,0
11.07.2020 23:00:00 7,5 5,7 2 1 SSW 0 0,0
11.07.2020 22:00:00 11,2 8,5 2 1 WSW 0 0,0
11.07.2020 21:00:00 14,7 10,6 0 0 N 0 0,0
11.07.2020 20:00:00 15,4 8,5 4 2 NNW 0 0,0
11.07.2020 19:00:00 15,9 8,5 4 2 WNW 6 0,0
11.07.2020 18:00:00 16,0 8,0 8 4 W 0 0,0
11.07.2020 17:00:00 15,5 8,2 8 4 WNW 0 0,0
11.07.2020 16:00:00 14,4 8,2 8 4 W 0 0,0
11.07.2020 15:00:00 14,4 9,0 8 4 W 0 0,0
11.07.2020 14:00:00 14,2 7,8 5 3 WNW 0 0,0
11.07.2020 13:00:00 14,0 8,2 5 3 NNW 0 0,0
11.07.2020 12:00:00 13,4 8,4 8 4 W 0 0,0
11.07.2020 11:00:00 13,8 7,1 9 5 NW 0 0,0
11.07.2020 10:00:00 13,7 8,6 9 5 WNW 0 0,0
11.07.2020 09:00:00 12,4 9,0 8 4 WNW 0 0,0
11.07.2020 08:00:00 11,8 9,0 8 4 WNW 24 0,0
11.07.2020 07:00:00 10,3 9,1 5 3 WNW 0 0,0
11.07.2020 06:00:00 9,6 9,5 4 2 WNW 0 0,0
11.07.2020 05:00:00 7,1 7,0 0 0 N 0 0,0
11.07.2020 04:00:00 6,5 6,2 0 0 N 0 0,0
11.07.2020 03:00:00 6,3 5,7 0 0 N 0 0,0
11.07.2020 02:00:00 7,3 5,6 2 1 NW 0 0,0
11.07.2020 01:00:00 10,8 7,5 4 2 NW - 0,0
11.07.2020 00:00:00 10,9 8,7 4 2 NW 0 0,0
10.07.2020 23:00:00 11,0 8,0 2 1 WNW 0 0,0
10.07.2020 22:00:00 12,6 8,0 8 4 NW 0 0,0
10.07.2020 21:00:00 13,3 7,9 8 4 NW 6 0,0
10.07.2020 20:00:00 14,3 8,0 8 4 NW 0 0,0
10.07.2020 19:00:00 14,6 9,6 5 3 NW 18 0,0
10.07.2020 18:00:00 14,6 10,2 8 4 NW 18 0,4
10.07.2020 17:00:00 15,3 7,9 13 7 NNW 24 0,0
10.07.2020 16:00:00 14,9 9,6 9 5 NNW 12 0,0
10.07.2020 15:00:00 14,0 9,7 18 10 N 18 0,0
10.07.2020 14:00:00 16,7 9,0 11 6 NNW 36 0,0
10.07.2020 13:00:00 15,3 9,6 8 4 NW 36 0,0
10.07.2020 12:00:00 12,3 9,0 8 4 NW 12 0,2
10.07.2020 11:00:00 14,1 8,4 9 5 NNW 36 0,0
10.07.2020 10:00:00 14,0 8,4 9 5 NW 24 0,0
10.07.2020 09:00:00 11,8 8,5 8 4 WNW 36 0,0
10.07.2020 08:00:00 10,8 7,9 9 5 NW 60 0,0
10.07.2020 07:00:00 9,1 8,0 5 3 NW 30 0,0
10.07.2020 06:00:00 7,7 7,2 5 3 NW 0 0,0
10.07.2020 05:00:00 7,5 7,0 4 2 WNW 0 0,0
10.07.2020 04:00:00 8,0 6,7 4 2 WNW 0 0,0
10.07.2020 03:00:00 8,8 7,5 4 2 WNW 0 0,0
10.07.2020 02:00:00 8,5 7,3 5 3 WNW 0 0,0
10.07.2020 01:00:00 8,4 7,1 5 3 WNW - 0,0
10.07.2020 00:00:00 9,5 6,4 4 2 NNW 0 0,0
09.07.2020 23:00:00 10,4 6,3 5 3 NNW 0 0,0
09.07.2020 22:00:00 11,6 7,4 4 2 NW 0 0,0
09.07.2020 21:00:00 12,5 7,4 11 6 N 18 0,0
09.07.2020 20:00:00 14,4 7,3 15 8 N 60 0,0
09.07.2020 19:00:00 15,4 7,2 15 8 N 60 0,0
09.07.2020 18:00:00 15,9 7,3 15 8 N 60 0,0
09.07.2020 17:00:00 16,7 8,6 15 8 N 60 0,0
09.07.2020 16:00:00 16,9 9,0 15 8 N 54 0,0
09.07.2020 15:00:00 16,7 9,7 15 8 N 48 0,0
09.07.2020 14:00:00 16,2 10,1 11 6 N 36 0,0
09.07.2020 13:00:00 16,0 10,9 13 7 N 12 0,0
09.07.2020 12:00:00 14,8 11,7 11 6 N 0 0,0
09.07.2020 11:00:00 14,5 11,9 8 4 NNW 0 0,0
09.07.2020 10:00:00 13,4 11,3 8 4 NNE 0 0,0
09.07.2020 09:00:00 13,0 11,6 5 3 N 0 0,0
09.07.2020 08:00:00 12,3 11,4 5 3 N 0 0,0
09.07.2020 07:00:00 11,8 11,3 8 4 N 0 0,0
09.07.2020 06:00:00 11,5 11,0 5 3 N 0 0,0
09.07.2020 05:00:00 11,6 10,9 5 3 NNE 0 0,0
09.07.2020 04:00:00 11,9 11,3 15 8 NE 0 0,0
09.07.2020 03:00:00 12,2 11,7 11 6 E 0 0,2
09.07.2020 02:00:00 12,1 11,8 11 6 ENE 0 0,2
09.07.2020 01:00:00 11,9 11,4 15 8 NE - 0,0
09.07.2020 00:00:00 11,8 11,3 15 8 NE 0 0,2
08.07.2020 23:00:00 11,6 11,1 13 7 ENE 0 0,2
08.07.2020 22:00:00 11,6 10,9 8 4 E 0 2,0
08.07.2020 21:00:00 11,7 11,0 5 3 ESE 0 0,4
08.07.2020 20:00:00 11,7 10,7 5 3 E 0 0,4
08.07.2020 19:00:00 12,1 11,0 8 4 ESE 0 1,6
08.07.2020 18:00:00 12,7 10,0 9 5 ESE 0 0,0
08.07.2020 17:00:00 13,4 10,2 9 5 ESE 0 0,2
08.07.2020 16:00:00 14,2 10,0 11 6 SE 0 0,0
08.07.2020 15:00:00 14,3 10,8 11 6 SE 0 0,0
08.07.2020 14:00:00 14,3 10,3 11 6 ESE 0 0,0
08.07.2020 13:00:00 14,9 10,4 11 6 SE 6 0,0
08.07.2020 12:00:00 16,0 9,7 11 6 E 12 0,0
08.07.2020 11:00:00 15,9 10,1 11 6 E 36 0,0
08.07.2020 10:00:00 14,8 9,9 5 3 NE 54 0,0
08.07.2020 09:00:00 13,6 10,4 2 1 S 54 0,0
08.07.2020 08:00:00 11,9 10,2 2 1 NW 54 0,0
08.07.2020 07:00:00 8,9 8,7 4 2 W 0 0,0
08.07.2020 06:00:00 7,9 6,9 2 1 N 0 0,0
08.07.2020 05:00:00 9,6 8,4 4 2 NW 0 0,0
08.07.2020 04:00:00 10,5 8,7 4 2 NW 0 0,0
08.07.2020 03:00:00 10,6 9,3 4 2 NW 0 0,0
08.07.2020 02:00:00 10,7 9,2 4 2 NE 0 0,0
08.07.2020 01:00:00 10,6 9,1 2 1 ENE - 0,0
08.07.2020 00:00:00 10,8 9,6 4 2 NE 0 0,0
07.07.2020 23:00:00 11,0 10,0 4 2 ESE 0 0,0
07.07.2020 22:00:00 11,4 10,1 5 3 SE 0 0,0
07.07.2020 21:00:00 11,8 10,2 8 4 ESE 0 0,0
07.07.2020 20:00:00 12,0 9,9 9 5 ESE 0 0,0
07.07.2020 19:00:00 12,2 9,8 11 6 ESE 0 0,0
07.07.2020 18:00:00 12,8 9,9 13 7 ESE 0 0,0
07.07.2020 17:00:00 13,4 10,4 13 7 ESE 0 0,0
07.07.2020 16:00:00 13,5 10,0 5 3 SE 0 0,0
07.07.2020 15:00:00 12,3 10,1 9 5 S 0 0,0
07.07.2020 14:00:00 11,4 10,1 9 5 S 0 0,0
07.07.2020 13:00:00 12,0 9,5 11 6 S 0 0,0
07.07.2020 12:00:00 12,2 10,7 8 4 SSW 0 0,4
07.07.2020 11:00:00 11,5 9,6 8 4 SSW 0 0,2
07.07.2020 10:00:00 11,7 9,9 8 4 SW 0 0,0
07.07.2020 09:00:00 10,9 10,6 8 4 SW 0 0,8
07.07.2020 08:00:00 10,6 10,2 4 2 WSW 0 0,0
07.07.2020 07:00:00 9,9 9,7 2 1 S 0 0,4
07.07.2020 06:00:00 9,1 8,8 2 1 SW 0 0,6
07.07.2020 05:00:00 8,1 8,0 2 1 E 0 0,0
07.07.2020 04:00:00 7,9 7,6 2 1 ENE 0 0,0
07.07.2020 03:00:00 8,4 8,2 4 2 NE 0 0,0
07.07.2020 02:00:00 7,9 7,6 2 1 NNE 0 0,0
07.07.2020 01:00:00 8,5 8,0 0 0 N - 0,0

tt = Température de l'air
td = dewpoint
ff = Vitesse du vent
dd = Direction du vent
sd = Ensoleillement
rr = Quantités de précipitations

stations d'obs. à proximité